createdAt,value
2018-04-22T00:01:23.292Z,100390
2018-04-22T00:03:49.375Z,100396
2018-04-22T00:06:16.184Z,100390
2018-04-22T00:08:42.268Z,100388
2018-04-22T00:11:08.353Z,100389
2018-04-22T00:13:34.439Z,100379
2018-04-22T00:16:00.520Z,100387
2018-04-22T00:18:26.592Z,100378
2018-04-22T00:20:52.659Z,100382
2018-04-22T00:23:18.743Z,100365
2018-04-22T00:25:44.819Z,100373
2018-04-22T00:28:10.894Z,100366
2018-04-22T00:30:36.989Z,100359
2018-04-22T00:33:03.799Z,100355
2018-04-22T00:35:29.879Z,100356
2018-04-22T00:37:55.955Z,100357
2018-04-22T00:40:22.037Z,100340
2018-04-22T00:42:48.120Z,100343
2018-04-22T00:45:14.211Z,100350
2018-04-22T00:47:40.281Z,100344
2018-04-22T00:50:07.096Z,100344
2018-04-22T00:52:33.172Z,100346
2018-04-22T00:54:59.243Z,100347
2018-04-22T00:57:25.319Z,100342
2018-04-22T00:59:51.403Z,100338
2018-04-22T01:02:18.219Z,100333
2018-04-22T01:04:44.288Z,100335
2018-04-22T01:07:11.104Z,100332
2018-04-22T01:09:37.172Z,100342
2018-04-22T01:12:03.268Z,100342
2018-04-22T01:17:39.135Z,100342
2018-04-22T01:20:05.210Z,100339
2018-04-22T01:22:31.286Z,100334
2018-04-22T01:24:57.350Z,100335
2018-04-22T01:27:23.429Z,100336
2018-04-22T01:29:49.497Z,100335
2018-04-22T01:32:15.585Z,100335
2018-04-22T01:34:41.654Z,100342
2018-04-22T01:37:07.746Z,100337
2018-04-22T01:39:33.822Z,100335
2018-04-22T01:41:59.898Z,100343
2018-04-22T01:44:25.973Z,100331
2018-04-22T01:46:52.045Z,100339
2018-04-22T01:49:18.126Z,100330
2018-04-22T01:51:44.221Z,100324
2018-04-22T01:54:10.310Z,100334
2018-04-22T01:56:36.411Z,100314
2018-04-22T01:59:03.242Z,100323
2018-04-22T02:01:29.333Z,100319
2018-04-22T02:03:55.409Z,100324
2018-04-22T02:06:22.258Z,100321
2018-04-22T02:08:50.590Z,100311
2018-04-22T02:11:16.682Z,100314
2018-04-22T02:13:42.765Z,100310
2018-04-22T02:16:08.846Z,100319
2018-04-22T02:18:34.937Z,100309
2018-04-22T02:21:01.759Z,100316
2018-04-22T02:23:27.850Z,100309
2018-04-22T02:25:53.950Z,100310
2018-04-22T02:28:20.048Z,100305
2018-04-22T02:30:46.875Z,100301
2018-04-22T02:33:12.970Z,100308
2018-04-22T02:35:39.058Z,100314
2018-04-22T02:38:05.893Z,100305
2018-04-22T02:40:32.731Z,100297
2018-04-22T02:42:59.576Z,100303
2018-04-22T02:45:26.394Z,100303
2018-04-22T02:47:52.462Z,100298
2018-04-22T02:50:18.542Z,100303
2018-04-22T02:52:44.631Z,100302
2018-04-22T02:55:10.721Z,100301
2018-04-22T02:57:37.545Z,100294
2018-04-22T03:00:03.635Z,100288
2018-04-22T03:02:29.709Z,100278
2018-04-22T03:04:56.537Z,100288
2018-04-22T03:07:22.622Z,100294
2018-04-22T03:09:48.713Z,100285
2018-04-22T03:12:15.541Z,100294
2018-04-22T03:14:42.385Z,100292
2018-04-22T03:17:08.459Z,100286
2018-04-22T03:19:34.545Z,100290
2018-04-22T03:22:01.378Z,100275
2018-04-22T03:24:28.201Z,100280
2018-04-22T03:26:54.290Z,100278
2018-04-22T03:29:20.365Z,100275
2018-04-22T03:31:46.459Z,100263
2018-04-22T03:34:12.551Z,100268
2018-04-22T03:36:38.638Z,100280
2018-04-22T03:39:04.706Z,100273
2018-04-22T03:41:30.798Z,100273
2018-04-22T03:43:57.626Z,100268
2018-04-22T03:46:23.713Z,100263
2018-04-22T03:48:49.802Z,100273
2018-04-22T03:51:16.618Z,100272
2018-04-22T03:53:42.686Z,100268
2018-04-22T03:56:08.757Z,100269
2018-04-22T03:58:34.833Z,100263
2018-04-22T04:01:00.910Z,100272
2018-04-22T04:03:27.019Z,100263
2018-04-22T04:05:53.090Z,100261
2018-04-22T04:08:19.897Z,100266
2018-04-22T04:10:45.967Z,100256
2018-04-22T04:13:12.778Z,100252
2018-04-22T04:15:38.890Z,100262
2018-04-22T04:21:51.567Z,100266
2018-04-22T04:27:46.977Z,100267
2018-04-22T04:30:13.058Z,100264
2018-04-22T04:32:39.125Z,100274
2018-04-22T04:35:05.189Z,100266
2018-04-22T04:37:31.260Z,100264
2018-04-22T04:39:57.346Z,100263
2018-04-22T04:42:23.417Z,100261
2018-04-22T04:44:49.497Z,100267
2018-04-22T04:47:15.573Z,100261
2018-04-22T04:49:42.367Z,100264
2018-04-22T04:52:08.466Z,100257
2018-04-22T04:54:35.314Z,100265
2018-04-22T04:57:02.149Z,100274
2018-04-22T04:59:28.986Z,100264
2018-04-22T05:01:55.821Z,100270
2018-04-22T05:04:21.909Z,100269
2018-04-22T05:06:50.870Z,100273
2018-04-22T05:09:16.962Z,100265
2018-04-22T05:11:43.057Z,100262
2018-04-22T05:14:09.144Z,100263
2018-04-22T05:16:35.978Z,100270
2018-04-22T05:19:02.810Z,100274
2018-04-22T05:21:28.909Z,100276
2018-04-22T05:23:54.993Z,100266
2018-04-22T05:26:21.090Z,100261
2018-04-22T05:28:47.917Z,100256
2018-04-22T05:31:14.063Z,100266
2018-04-22T05:33:40.114Z,100265
2018-04-22T05:36:06.197Z,100271
2018-04-22T05:38:33.333Z,100276
2018-04-22T05:40:59.413Z,100279
2018-04-22T05:43:25.500Z,100279
2018-04-22T05:45:51.582Z,100282
2018-04-22T05:48:17.681Z,100302
2018-04-22T05:50:43.786Z,100268
2018-04-22T05:53:10.634Z,100296
2018-04-22T05:55:37.452Z,100289
2018-04-22T05:58:05.027Z,100279
2018-04-22T06:00:31.107Z,100282
2018-04-22T06:02:57.201Z,100277
2018-04-22T06:05:24.026Z,100285
2018-04-22T06:07:50.866Z,100285
2018-04-22T06:10:16.949Z,100284
2018-04-22T06:12:43.049Z,100287
2018-04-22T06:15:09.133Z,100286
2018-04-22T06:17:35.210Z,100288
2018-04-22T06:20:01.285Z,100284
2018-04-22T06:22:27.373Z,100292
2018-04-22T06:24:54.218Z,100289
2018-04-22T06:27:20.297Z,100288
2018-04-22T06:29:47.133Z,100286
2018-04-22T06:32:13.962Z,100278
2018-04-22T06:34:40.058Z,100281
2018-04-22T06:37:06.133Z,100272
2018-04-22T06:39:32.965Z,100281
2018-04-22T06:41:59.050Z,100281
2018-04-22T06:44:25.141Z,100276
2018-04-22T06:46:51.218Z,100272
2018-04-22T06:49:18.045Z,100274
2018-04-22T06:51:44.133Z,100272
2018-04-22T06:54:10.955Z,100275
2018-04-22T06:56:37.797Z,100271
2018-04-22T06:59:03.869Z,100282
2018-04-22T07:01:29.969Z,100267
2018-04-22T07:03:56.066Z,100278
2018-04-22T07:06:22.149Z,100271
2018-04-22T07:08:48.238Z,100262
2018-04-22T07:11:15.071Z,100263
2018-04-22T07:13:41.893Z,100254
2018-04-22T07:16:11.130Z,100252
2018-04-22T07:18:37.218Z,100255
2018-04-22T07:21:03.325Z,100254
2018-04-22T07:23:29.430Z,100253
2018-04-22T07:25:55.517Z,100257
2018-04-22T07:28:22.337Z,100258
2018-04-22T07:30:48.453Z,100258
2018-04-22T07:33:14.542Z,100253
2018-04-22T07:35:40.649Z,100259
2018-04-22T07:38:06.750Z,100262
2018-04-22T07:44:06.449Z,100269
2018-04-22T07:46:32.565Z,100269
2018-04-22T07:48:58.681Z,100277
2018-04-22T07:51:24.761Z,100267
2018-04-22T07:53:50.845Z,100272
2018-04-22T07:56:16.916Z,100269
2018-04-22T07:58:42.994Z,100269
2018-04-22T08:01:09.063Z,100265
2018-04-22T08:03:35.125Z,100257
2018-04-22T08:06:01.198Z,100257
2018-04-22T08:08:27.273Z,100259
2018-04-22T08:10:53.358Z,100260
2018-04-22T08:13:20.450Z,100261
2018-04-22T08:15:46.513Z,100257
2018-04-22T08:18:12.578Z,100257
2018-04-22T08:20:39.394Z,100257
2018-04-22T08:23:05.474Z,100249
2018-04-22T08:25:31.549Z,100246
2018-04-22T08:27:57.638Z,100252
2018-04-22T08:30:23.713Z,100246
2018-04-22T08:33:12.091Z,100241
2018-04-22T08:35:38.161Z,100240
2018-04-22T08:38:08.585Z,100253
2018-04-22T08:40:34.657Z,100242
2018-04-22T08:43:00.754Z,100238
2018-04-22T08:45:26.830Z,100240
2018-04-22T08:47:52.913Z,100237
2018-04-22T08:50:19.730Z,100250
2018-04-22T08:52:45.818Z,100244
2018-04-22T08:55:11.909Z,100243
2018-04-22T08:57:38.760Z,100236
2018-04-22T09:00:16.061Z,100236
2018-04-22T09:03:05.742Z,100233
2018-04-22T09:05:35.241Z,100230
2018-04-22T09:08:05.741Z,100227
2018-04-22T09:10:33.745Z,100227
2018-04-22T09:12:59.825Z,100225
2018-04-22T09:15:49.250Z,100221
2018-04-22T09:18:15.321Z,100221
2018-04-22T09:20:41.422Z,100221
2018-04-22T09:23:07.509Z,100216
2018-04-22T09:25:34.365Z,100210
2018-04-22T09:28:00.482Z,100207
2018-04-22T09:30:26.537Z,100210
2018-04-22T09:32:52.625Z,100206
2018-04-22T09:35:19.448Z,100213
2018-04-22T09:37:45.549Z,100207
2018-04-22T09:40:11.628Z,100205
2018-04-22T09:42:37.717Z,100207
2018-04-22T09:45:03.806Z,100206
2018-04-22T09:47:29.897Z,100208
2018-04-22T09:49:56.724Z,100207
2018-04-22T09:52:23.556Z,100207
2018-04-22T09:54:49.631Z,100201
2018-04-22T09:57:15.718Z,100196
2018-04-22T09:59:41.798Z,100197
2018-04-22T10:02:14.185Z,100192
2018-04-22T10:04:40.262Z,100192
2018-04-22T10:07:06.330Z,100179
2018-04-22T10:09:32.411Z,100188
2018-04-22T10:11:59.222Z,100175
2018-04-22T10:14:25.293Z,100169
2018-04-22T10:16:51.361Z,100176
2018-04-22T10:19:17.456Z,100177
2018-04-22T10:21:43.534Z,100168
2018-04-22T10:24:09.618Z,100167
2018-04-22T10:26:35.693Z,100165
2018-04-22T10:29:02.514Z,100156
2018-04-22T10:31:28.586Z,100160
2018-04-22T10:33:54.666Z,100152
2018-04-22T10:36:20.739Z,100150
2018-04-22T10:38:46.825Z,100141
2018-04-22T10:41:28.402Z,100143
2018-04-22T10:43:54.497Z,100141
2018-04-22T10:46:20.585Z,100135
2018-04-22T10:48:46.666Z,100135
2018-04-22T10:51:12.789Z,100142
2018-04-22T10:53:38.873Z,100129
2018-04-22T10:56:04.958Z,100137
2018-04-22T10:58:31.030Z,100130
2018-04-22T11:00:57.103Z,100124
2018-04-22T11:03:23.179Z,100130
2018-04-22T11:05:49.254Z,100121
2018-04-22T11:08:15.327Z,100121
2018-04-22T11:10:41.406Z,100112
2018-04-22T11:13:07.499Z,100109
2018-04-22T11:15:34.390Z,100106
2018-04-22T11:18:00.461Z,100105
2018-04-22T11:20:26.533Z,100098
2018-04-22T11:22:52.614Z,100112
2018-04-22T11:25:18.689Z,100108
2018-04-22T11:27:45.558Z,100098
2018-04-22T11:30:11.621Z,100097
2018-04-22T11:32:37.718Z,100096
2018-04-22T11:35:09.342Z,100087
2018-04-22T11:37:36.162Z,100079
2018-04-22T11:40:02.235Z,100086
2018-04-22T11:42:28.312Z,100085
2018-04-22T11:44:54.386Z,100082
2018-04-22T11:47:20.465Z,100094
2018-04-22T11:49:46.542Z,100083
2018-04-22T11:52:12.641Z,100080
2018-04-22T11:54:39.467Z,100085
2018-04-22T11:57:07.037Z,100080
2018-04-22T11:59:33.118Z,100084
2018-04-22T12:01:59.213Z,100086
2018-04-22T12:04:25.846Z,100083
2018-04-22T12:06:52.681Z,100083
2018-04-22T12:09:19.514Z,100083
2018-04-22T12:11:46.341Z,100085
2018-04-22T12:14:12.434Z,100083
2018-04-22T12:16:38.520Z,100086
2018-04-22T12:19:05.346Z,100078
2018-04-22T12:21:32.177Z,100076
2018-04-22T12:23:58.281Z,100081
2018-04-22T12:26:24.373Z,100074
2018-04-22T12:28:50.465Z,100076
2018-04-22T12:31:38.738Z,100067
2018-04-22T12:34:04.829Z,100063
2018-04-22T12:36:30.914Z,100058
2018-04-22T12:38:56.998Z,100057
2018-04-22T12:41:52.990Z,100054
2018-04-22T12:44:19.094Z,100050
2018-04-22T12:46:45.177Z,100049
2018-04-22T12:49:12.009Z,100053
2018-04-22T12:51:38.102Z,100043
2018-04-22T12:54:04.193Z,100040
2018-04-22T12:56:30.274Z,100040
2018-04-22T12:58:56.370Z,100037
2018-04-22T13:01:22.685Z,100033
2018-04-22T13:03:48.906Z,100022
2018-04-22T13:06:14.981Z,100015
2018-04-22T13:08:41.049Z,100018
2018-04-22T13:11:07.126Z,100016
2018-04-22T13:13:33.202Z,100015
2018-04-22T13:15:59.277Z,100008
2018-04-22T13:18:25.345Z,100000
2018-04-22T13:20:51.426Z,100010
2018-04-22T13:23:17.515Z,99997
2018-04-22T13:25:43.664Z,99998
2018-04-22T13:28:09.686Z,99987
2018-04-22T13:30:35.767Z,99991
2018-04-22T13:33:02.573Z,99988
2018-04-22T13:35:28.666Z,99985
2018-04-22T13:37:54.733Z,99983
2018-04-22T13:40:20.806Z,99983
2018-04-22T13:42:46.889Z,99976
2018-04-22T13:45:12.962Z,99979
2018-04-22T13:47:39.038Z,99976
2018-04-22T13:50:05.848Z,99974
2018-04-22T13:52:31.930Z,99975
2018-04-22T13:54:58.737Z,99975
2018-04-22T13:57:24.812Z,99972
2018-04-22T13:59:50.882Z,99976
2018-04-22T14:02:16.957Z,99965
2018-04-22T14:04:43.027Z,99960
2018-04-22T14:07:09.092Z,99955
2018-04-22T14:09:35.897Z,99950
2018-04-22T14:12:01.987Z,99949
2018-04-22T14:14:28.049Z,99950
2018-04-22T14:16:54.117Z,99943
2018-04-22T14:19:20.189Z,99939
2018-04-22T14:21:46.272Z,99937
2018-04-22T14:24:12.365Z,99939
2018-04-22T14:26:38.429Z,99932
2018-04-22T14:29:04.516Z,99934
2018-04-22T14:31:30.587Z,99932
2018-04-22T14:33:56.661Z,99926
2018-04-22T14:36:22.725Z,99929
2018-04-22T14:38:48.802Z,99920
2018-04-22T14:41:14.873Z,99922
2018-04-22T14:43:59.745Z,99919
2018-04-22T14:46:25.820Z,99914
2018-04-22T14:49:05.019Z,99908
2018-04-22T14:51:31.106Z,99904
2018-04-22T14:53:57.987Z,99899
2018-04-22T14:56:24.749Z,99893
2018-04-22T14:58:50.844Z,99895
2018-04-22T15:01:16.919Z,99897
2018-04-22T15:03:43.014Z,99898
2018-04-22T15:06:09.142Z,99891
2018-04-22T15:08:35.214Z,99891
2018-04-22T15:11:02.029Z,99887
2018-04-22T15:13:28.110Z,99887
2018-04-22T15:15:54.193Z,99886
2018-04-22T15:18:20.322Z,99886
2018-04-22T15:20:46.400Z,99880
2018-04-22T15:23:12.478Z,99880
2018-04-22T15:25:38.558Z,99878
2018-04-22T15:28:04.638Z,99872
2018-04-22T15:30:31.485Z,99869
2018-04-22T15:32:58.301Z,99872
2018-04-22T15:35:24.379Z,99871
2018-04-22T15:37:50.458Z,99859
2018-04-22T15:40:16.530Z,99854
2018-04-22T15:42:42.630Z,99854
2018-04-22T15:45:09.435Z,99859
2018-04-22T15:47:35.513Z,99852
2018-04-22T15:50:01.574Z,99846
2018-04-22T15:52:27.652Z,99854
2018-04-22T15:54:53.733Z,99852
2018-04-22T15:57:19.805Z,99841
2018-04-22T15:59:45.876Z,99841
2018-04-22T16:02:11.955Z,99850
2018-04-22T16:04:38.762Z,99842
2018-04-22T16:07:04.833Z,99837
2018-04-22T16:09:30.950Z,99840
2018-04-22T16:11:57.053Z,99839
2018-04-22T16:14:23.173Z,99835
2018-04-22T16:16:49.205Z,99829
2018-04-22T16:19:16.021Z,99826
2018-04-22T16:22:10.507Z,99823
2018-04-22T16:24:36.579Z,99823
2018-04-22T16:27:03.381Z,99828
2018-04-22T16:29:29.456Z,99833
2018-04-22T16:31:55.529Z,99826
2018-04-22T16:34:21.609Z,99821
2018-04-22T16:36:47.673Z,99819
2018-04-22T16:39:13.754Z,99824
2018-04-22T16:41:39.842Z,99827
2018-04-22T16:44:05.938Z,99822
2018-04-22T16:46:32.005Z,99820
2018-04-22T16:48:58.078Z,99809
2018-04-22T16:51:24.165Z,99804
2018-04-22T16:53:51.002Z,99808
2018-04-22T16:56:17.827Z,99806
2018-04-22T16:58:43.938Z,99805
2018-04-22T17:01:10.028Z,99808
2018-04-22T17:03:37.150Z,99805
2018-04-22T17:06:07.693Z,99801
2018-04-22T17:08:42.209Z,99805
2018-04-22T17:11:08.266Z,99802
2018-04-22T17:13:34.347Z,99791
2018-04-22T17:16:01.174Z,99793
2018-04-22T17:18:28.746Z,99791
2018-04-22T17:20:55.593Z,99790
2018-04-22T17:23:21.678Z,99793
2018-04-22T17:25:47.780Z,99788
2018-04-22T17:28:13.871Z,99791
2018-04-22T17:30:40.702Z,99795
2018-04-22T17:33:06.789Z,99793
2018-04-22T17:35:32.881Z,99798
2018-04-22T17:41:01.594Z,99809
2018-04-22T17:49:29.200Z,99793
2018-04-22T17:51:55.290Z,99795
2018-04-22T17:54:21.357Z,99788
2018-04-22T17:56:47.441Z,99789
2018-04-22T17:59:13.517Z,99791
2018-04-22T18:01:39.668Z,99786
2018-04-22T18:04:06.417Z,99791
2018-04-22T18:06:32.499Z,99784
2018-04-22T18:08:58.566Z,99788
2018-04-22T18:11:24.638Z,99788
2018-04-22T18:13:51.458Z,99784
2018-04-22T18:16:17.525Z,99790
2018-04-22T18:18:43.613Z,99792
2018-04-22T18:21:10.430Z,99785
2018-04-22T18:23:36.500Z,99790
2018-04-22T18:26:03.455Z,99776
2018-04-22T18:28:29.537Z,99779
2018-04-22T18:30:55.614Z,99780
2018-04-22T18:33:21.680Z,99780
2018-04-22T18:48:08.954Z,99785
2018-04-22T18:50:35.030Z,99778
2018-04-22T18:53:01.117Z,99772
2018-04-22T18:55:27.209Z,99783
2018-04-22T18:57:53.294Z,99772
2018-04-22T19:00:19.369Z,99776
2018-04-22T19:02:45.466Z,99775
2018-04-22T19:05:12.304Z,99778
2018-04-22T19:07:39.139Z,99771
2018-04-22T19:10:05.225Z,99777
2018-04-22T19:12:31.302Z,99777
2018-04-22T19:14:58.138Z,99778
2018-04-22T19:17:24.958Z,99771
2018-04-22T19:19:51.046Z,99777
2018-04-22T19:22:17.138Z,99777
2018-04-22T19:24:43.957Z,99777
2018-04-22T19:27:10.042Z,99776
2018-04-22T19:29:36.158Z,99774
2018-04-22T19:32:02.250Z,99781
2018-04-22T19:34:29.082Z,99772
2018-04-22T19:36:55.176Z,99769
2018-04-22T19:39:22.230Z,99777
2018-04-22T19:41:48.322Z,99777
2018-04-22T19:44:14.919Z,99774
2018-04-22T19:46:41.003Z,99767
2018-04-22T19:49:10.133Z,99775
2018-04-22T19:57:40.022Z,99772
2018-04-22T20:00:06.842Z,99765
2018-04-22T20:02:32.927Z,99759
2018-04-22T20:04:59.018Z,99771
2018-04-22T20:07:25.851Z,99770
2018-04-22T20:09:52.690Z,99767
2018-04-22T20:12:18.778Z,99772
2018-04-22T20:14:44.861Z,99759
2018-04-22T20:20:28.477Z,99764
2018-04-22T20:22:59.959Z,99751
2018-04-22T20:25:31.501Z,99762
2018-04-22T20:34:15.682Z,99764
2018-04-22T20:39:52.030Z,99751
2018-04-22T20:42:18.129Z,99761
2018-04-22T20:44:44.214Z,99772
2018-04-22T20:47:10.297Z,99758
2018-04-22T20:49:36.385Z,99753
2018-04-22T20:55:03.470Z,99749
2018-04-22T20:57:29.549Z,99753
2018-04-22T20:59:55.649Z,99739
2018-04-22T21:02:21.731Z,99737
2018-04-22T21:04:52.269Z,99741
2018-04-22T21:10:30.858Z,99732
2018-04-22T21:12:56.933Z,99741
2018-04-22T21:15:23.758Z,99734
2018-04-22T21:17:55.126Z,99736
2018-04-22T21:23:23.825Z,99733
2018-04-22T21:25:50.667Z,99729
2018-04-22T21:28:51.362Z,99733
2018-04-22T21:31:17.454Z,99724
2018-04-22T21:33:43.537Z,99729
2018-04-22T21:36:09.633Z,99736
2018-04-22T21:38:36.419Z,99727
2018-04-22T21:41:05.324Z,99736
2018-04-22T21:43:32.150Z,99730
2018-04-22T21:45:58.243Z,99740
2018-04-22T21:51:25.365Z,99743
2018-04-22T22:03:07.902Z,99737
2018-04-22T22:05:34.019Z,99733
2018-04-22T22:08:00.105Z,99724
2018-04-22T22:10:26.186Z,99730
2018-04-22T22:12:52.277Z,99728
2018-04-22T22:15:18.357Z,99726
2018-04-22T22:17:45.185Z,99720
2018-04-22T22:20:11.270Z,99713
2018-04-22T22:22:37.362Z,99701
2018-04-22T22:25:03.434Z,99712
2018-04-22T22:27:29.522Z,99708
2018-04-22T22:29:55.601Z,99713
2018-04-22T22:32:21.698Z,99714
2018-04-22T22:34:47.777Z,99711
2018-04-22T22:37:14.607Z,99712
2018-04-22T22:39:40.697Z,99712
2018-04-22T22:42:06.811Z,99712
2018-04-22T22:44:32.950Z,99716
2018-04-22T22:46:59.038Z,99714
2018-04-22T22:49:25.161Z,99705
2018-04-22T22:51:51.206Z,99706
2018-04-22T22:54:17.277Z,99703
2018-04-22T22:56:43.350Z,99703
2018-04-22T22:59:09.435Z,99702
2018-04-22T23:01:35.763Z,99696
2018-04-22T23:04:01.842Z,99693
2018-04-22T23:06:27.910Z,99695
2018-04-22T23:08:53.990Z,99689
2018-04-22T23:11:20.061Z,99691
2018-04-22T23:13:46.129Z,99687
2018-04-22T23:16:12.197Z,99696
2018-04-22T23:18:38.282Z,99683
2018-04-22T23:21:04.352Z,99691
2018-04-22T23:23:30.437Z,99685
2018-04-22T23:25:56.518Z,99693
2018-04-22T23:28:22.590Z,99772
2018-04-22T23:30:48.666Z,99710
2018-04-22T23:33:14.730Z,99742
2018-04-22T23:35:40.809Z,99765
2018-04-22T23:38:06.877Z,99749
2018-04-22T23:40:39.160Z,99755
2018-04-22T23:43:05.230Z,99739
2018-04-22T23:45:32.178Z,99759
2018-04-22T23:47:58.250Z,99739
2018-04-22T23:50:29.806Z,99745
2018-04-22T23:52:55.899Z,99736
2018-04-22T23:55:22.725Z,99734
2018-04-22T23:57:48.828Z,99727
